Home   Weather   Utah Bill Canyon   Past weeks
Flag for USA

Past Weather in Utah Bill Canyon, New Mexico, USA — Yesterday and Last 2 Weeks

Currently: 95 °F. Sunny. (Weather station: Las Cruces International, USA). See more current weather

Past Weather in Utah Bill Canyon — Graph

°F

Utah Bill Canyon Temperature Yesterday

Maximum temperature yesterday: 96 °F (at 3:35 pm)
Minimum temperature yesterday: 60 °F (at 6:35 am)
Average temperature yesterday: 77 °F

High & Low Weather Summary for the Past Weeks

 TemperatureHumidityPressure
High97 °F (Sep 14, 3:55 pm)80% (Sep 6, 6:55 am)30.28 "Hg (Sep 6, 6:55 am)
Low56 °F (Sep 13, 5:55 am)10% (Sep 11, 3:35 pm)29.95 "Hg (Sep 14, 4:55 pm)
Average78 °F32%30.13 "Hg
* Reported Sep 3 2:15 pm — Sep 18 2:15 pm, Utah Bill Canyon. Weather by CustomWeather, © 2021

Note: Actual official high and low records may vary slightly from our data, if they occured in-between our weather recording intervals... More about our weather records

Utah Bill Canyon Weather History for the Previous 24 Hours

Scroll right to see more
 ConditionsComfort  
Time TempWeatherWind HumidityBarometerVisibility
2:15 pm
Sat, Sep 18
95 °FSunny.12 mph11%30.16 "Hg10 mi
1:55 pm93 °FSunny.10 mph14%30.18 "Hg10 mi
1:35 pm92 °FSunny.8 mph17%30.18 "Hg10 mi
12:55 pm90 °FSunny.8 mph18%30.21 "Hg10 mi
12:35 pm89 °FSunny.3 mph18%30.22 "Hg10 mi
12:15 pm88 °FSunny.7 mph18%30.23 "Hg10 mi
11:55 am88 °FSunny.8 mph19%30.23 "Hg10 mi
11:35 am87 °FSunny.10 mph19%30.24 "Hg10 mi
11:15 am86 °FSunny.7 mph20%30.24 "Hg10 mi
10:55 am85 °FSunny.6 mph20%30.24 "Hg10 mi
10:35 am85 °FSunny.5 mph19%30.24 "Hg10 mi
10:15 am83 °FSunny.No wind20%30.24 "Hg10 mi
9:55 am80 °FSunny.No wind22%30.24 "Hg10 mi
9:35 am78 °FSunny.No wind23%30.24 "Hg10 mi
9:15 am78 °FSunny.5 mph23%30.24 "Hg10 mi
8:55 am76 °FSunny.No wind26%30.23 "Hg10 mi
8:35 am74 °FSunny.5 mph28%30.23 "Hg10 mi
8:15 am71 °FSunny.3 mph29%30.23 "Hg10 mi
7:55 am67 °FSunny.No wind32%30.23 "Hg10 mi
7:35 am64 °FSunny.No wind34%30.23 "Hg10 mi
7:15 am62 °FSunny.7 mph35%30.21 "Hg10 mi
6:55 am60 °FSunny.5 mph37%30.20 "Hg10 mi
6:35 am60 °FClear.No wind37%30.20 "Hg10 mi
6:15 am60 °FClear.No wind36%30.19 "Hg10 mi
5:55 am62 °FClear.No wind35%30.19 "Hg10 mi
5:35 am62 °FClear.3 mph34%30.18 "Hg10 mi
5:15 am64 °FClear.5 mph33%30.17 "Hg10 mi
4:55 am64 °FClear.5 mph32%30.17 "Hg10 mi
4:35 am63 °FClear.3 mph34%30.17 "Hg10 mi
4:15 am63 °FClear.3 mph34%30.17 "Hg10 mi
3:55 am63 °FClear.5 mph33%30.17 "Hg10 mi
3:35 am64 °FClear.5 mph32%30.17 "Hg10 mi
3:15 am67 °FClear.5 mph29%30.18 "Hg10 mi
2:55 am73 °FClear.5 mph24%30.18 "Hg10 mi
2:35 am72 °FClear.3 mph25%30.17 "Hg10 mi
2:15 am71 °FClear.6 mph27%30.17 "Hg10 mi
1:55 am72 °FClear.9 mph26%30.17 "Hg10 mi
1:35 am72 °FClear.5 mph26%30.16 "Hg10 mi
1:15 am67 °FClear.6 mph29%30.16 "Hg10 mi
12:55 am71 °FClear.No wind26%30.16 "Hg10 mi
12:35 am72 °FClear.3 mph25%30.17 "Hg10 mi
12:15 am71 °FClear.3 mph26%30.17 "Hg10 mi
11:55 pm
Fri, Sep 17
71 °FClear.3 mph25%30.17 "Hg10 mi
11:35 pm71 °FClear.9 mph24%30.16 "Hg10 mi
11:15 pm72 °FClear.9 mph24%30.16 "Hg10 mi
10:55 pm73 °FClear.8 mph23%30.16 "Hg10 mi
10:35 pm72 °FClear.8 mph23%30.16 "Hg10 mi
10:15 pm73 °FClear.6 mph23%30.16 "Hg10 mi
9:55 pm76 °FClear.7 mph21%30.16 "Hg10 mi
9:35 pm78 °FClear.5 mph20%30.15 "Hg10 mi
9:15 pm76 °FClear.3 mph21%30.15 "Hg10 mi
8:55 pm79 °FClear.3 mph19%30.14 "Hg10 mi
8:15 pm80 °FClear.5 mph17%30.13 "Hg10 mi
7:15 pm86 °FClear.3 mph14%30.12 "Hg10 mi
6:55 pm89 °FSunny.3 mph13%30.12 "Hg10 mi
6:15 pm91 °FSunny.5 mph12%30.11 "Hg10 mi
5:55 pm92 °FSunny.5 mph12%30.11 "Hg10 mi
5:35 pm94 °FSunny.3 mph11%30.11 "Hg10 mi
5:15 pm93 °FSunny.8 mph11%30.11 "Hg10 mi
4:55 pm94 °FSunny.5 mph11%30.11 "Hg10 mi
3:55 pm94 °FScattered clouds.9 mph11%30.11 "Hg10 mi
3:35 pm96 °FScattered clouds.7 mph10%30.12 "Hg10 mi
Weather by CustomWeather, © 2021

See weather overview